sensor_id;sensor_type;location;lat;lon;timestamp;P1;durP1;ratioP1;P2;durP2;ratioP2
25707;SDS011;13567;61.652;17.100;2022-09-21T00:01:17;2.47;;;0.80;;
25707;SDS011;13567;61.652;17.100;2022-09-21T00:03:46;4.53;;;1.10;;
25707;SDS011;13567;61.652;17.100;2022-09-21T00:06:18;2.17;;;1.03;;
25707;SDS011;13567;61.652;17.100;2022-09-21T00:08:46;4.33;;;1.20;;
25707;SDS011;13567;61.652;17.100;2022-09-21T00:11:14;4.70;;;1.03;;
25707;SDS011;13567;61.652;17.100;2022-09-21T00:13:44;6.73;;;1.43;;
25707;SDS011;13567;61.652;17.100;2022-09-21T00:16:13;2.83;;;1.00;;
25707;SDS011;13567;61.652;17.100;2022-09-21T00:18:41;3.67;;;1.13;;
25707;SDS011;13567;61.652;17.100;2022-09-21T00:21:10;3.67;;;1.03;;
25707;SDS011;13567;61.652;17.100;2022-09-21T00:23:39;2.10;;;1.00;;
25707;SDS011;13567;61.652;17.100;2022-09-21T00:26:08;4.07;;;1.17;;
25707;SDS011;13567;61.652;17.100;2022-09-21T00:28:36;3.47;;;0.93;;
25707;SDS011;13567;61.652;17.100;2022-09-21T00:31:04;1.53;;;1.03;;
25707;SDS011;13567;61.652;17.100;2022-09-21T00:33:33;4.87;;;1.10;;
25707;SDS011;13567;61.652;17.100;2022-09-21T00:36:00;2.20;;;1.00;;
25707;SDS011;13567;61.652;17.100;2022-09-21T00:38:30;5.03;;;1.10;;
25707;SDS011;13567;61.652;17.100;2022-09-21T00:40:57;4.10;;;0.90;;
25707;SDS011;13567;61.652;17.100;2022-09-21T00:43:24;3.13;;;1.00;;
25707;SDS011;13567;61.652;17.100;2022-09-21T00:45:54;6.30;;;1.00;;
25707;SDS011;13567;61.652;17.100;2022-09-21T00:48:26;2.07;;;0.90;;
25707;SDS011;13567;61.652;17.100;2022-09-21T00:50:55;3.70;;;1.13;;
25707;SDS011;13567;61.652;17.100;2022-09-21T00:53:26;4.00;;;1.00;;
25707;SDS011;13567;61.652;17.100;2022-09-21T00:55:54;3.27;;;1.10;;
25707;SDS011;13567;61.652;17.100;2022-09-21T00:58:27;2.83;;;1.00;;
25707;SDS011;13567;61.652;17.100;2022-09-21T01:00:58;4.40;;;1.20;;
25707;SDS011;13567;61.652;17.100;2022-09-21T01:03:26;2.67;;;0.73;;
25707;SDS011;13567;61.652;17.100;2022-09-21T01:05:55;1.60;;;1.20;;
25707;SDS011;13567;61.652;17.100;2022-09-21T01:08:22;5.40;;;1.10;;
25707;SDS011;13567;61.652;17.100;2022-09-21T01:11:06;5.43;;;1.30;;
25707;SDS011;13567;61.652;17.100;2022-09-21T01:13:50;3.43;;;0.87;;
25707;SDS011;13567;61.652;17.100;2022-09-21T01:30:30;1.37;;;0.80;;
25707;SDS011;13567;61.652;17.100;2022-09-21T01:33:05;1.73;;;1.10;;
25707;SDS011;13567;61.652;17.100;2022-09-21T01:36:01;4.70;;;1.00;;
25707;SDS011;13567;61.652;17.100;2022-09-21T01:38:42;4.33;;;0.87;;
25707;SDS011;13567;61.652;17.100;2022-09-21T01:41:15;4.93;;;1.03;;
25707;SDS011;13567;61.652;17.100;2022-09-21T01:43:48;4.97;;;1.30;;
25707;SDS011;13567;61.652;17.100;2022-09-21T01:46:20;4.50;;;1.10;;
25707;SDS011;13567;61.652;17.100;2022-09-21T01:48:51;4.30;;;0.90;;
25707;SDS011;13567;61.652;17.100;2022-09-21T01:51:21;3.40;;;0.80;;
25707;SDS011;13567;61.652;17.100;2022-09-21T01:53:55;5.27;;;1.20;;
25707;SDS011;13567;61.652;17.100;2022-09-21T01:56:31;5.60;;;1.10;;
25707;SDS011;13567;61.652;17.100;2022-09-21T01:59:11;2.40;;;0.83;;
25707;SDS011;13567;61.652;17.100;2022-09-21T02:01:52;3.50;;;0.80;;
25707;SDS011;13567;61.652;17.100;2022-09-21T02:04:23;2.97;;;0.83;;
25707;SDS011;13567;61.652;17.100;2022-09-21T02:06:51;2.83;;;0.90;;
25707;SDS011;13567;61.652;17.100;2022-09-21T02:09:18;2.73;;;1.07;;
25707;SDS011;13567;61.652;17.100;2022-09-21T02:11:46;5.17;;;1.23;;
25707;SDS011;13567;61.652;17.100;2022-09-21T02:14:14;5.43;;;0.80;;
25707;SDS011;13567;61.652;17.100;2022-09-21T02:16:47;2.50;;;0.73;;
25707;SDS011;13567;61.652;17.100;2022-09-21T02:25:31;4.03;;;0.70;;
25707;SDS011;13567;61.652;17.100;2022-09-21T02:28:08;5.03;;;1.20;;
25707;SDS011;13567;61.652;17.100;2022-09-21T02:30:45;3.20;;;0.93;;
25707;SDS011;13567;61.652;17.100;2022-09-21T02:33:40;5.13;;;0.90;;
25707;SDS011;13567;61.652;17.100;2022-09-21T02:36:39;3.43;;;0.90;;
25707;SDS011;13567;61.652;17.100;2022-09-21T02:39:27;3.90;;;1.00;;
25707;SDS011;13567;61.652;17.100;2022-09-21T02:42:05;3.40;;;1.00;;
25707;SDS011;13567;61.652;17.100;2022-09-21T02:44:38;2.07;;;0.90;;
25707;SDS011;13567;61.652;17.100;2022-09-21T02:47:19;3.50;;;0.87;;
25707;SDS011;13567;61.652;17.100;2022-09-21T02:49:55;4.00;;;0.90;;
25707;SDS011;13567;61.652;17.100;2022-09-21T02:52:26;3.17;;;1.10;;
25707;SDS011;13567;61.652;17.100;2022-09-21T02:54:56;3.33;;;0.97;;
25707;SDS011;13567;61.652;17.100;2022-09-21T02:57:24;2.63;;;0.87;;
25707;SDS011;13567;61.652;17.100;2022-09-21T02:59:52;6.77;;;1.57;;
25707;SDS011;13567;61.652;17.100;2022-09-21T03:02:19;3.20;;;0.90;;
25707;SDS011;13567;61.652;17.100;2022-09-21T03:04:46;2.73;;;0.80;;
25707;SDS011;13567;61.652;17.100;2022-09-21T03:07:14;3.07;;;1.00;;
25707;SDS011;13567;61.652;17.100;2022-09-21T03:09:42;2.83;;;0.87;;
25707;SDS011;13567;61.652;17.100;2022-09-21T03:12:09;2.90;;;0.90;;
25707;SDS011;13567;61.652;17.100;2022-09-21T03:14:36;3.50;;;1.00;;
25707;SDS011;13567;61.652;17.100;2022-09-21T03:17:03;2.23;;;0.80;;
25707;SDS011;13567;61.652;17.100;2022-09-21T03:19:30;2.33;;;0.93;;
25707;SDS011;13567;61.652;17.100;2022-09-21T03:21:57;5.00;;;1.07;;
25707;SDS011;13567;61.652;17.100;2022-09-21T03:24:25;4.83;;;1.07;;
25707;SDS011;13567;61.652;17.100;2022-09-21T03:27:17;6.13;;;1.03;;
25707;SDS011;13567;61.652;17.100;2022-09-21T03:29:46;2.10;;;0.80;;
25707;SDS011;13567;61.652;17.100;2022-09-21T03:32:13;5.60;;;1.10;;
25707;SDS011;13567;61.652;17.100;2022-09-21T03:34:40;1.73;;;0.90;;
25707;SDS011;13567;61.652;17.100;2022-09-21T03:37:08;3.07;;;0.93;;
25707;SDS011;13567;61.652;17.100;2022-09-21T03:39:35;3.43;;;1.07;;
25707;SDS011;13567;61.652;17.100;2022-09-21T03:42:02;6.67;;;1.07;;
25707;SDS011;13567;61.652;17.100;2022-09-21T03:44:30;2.67;;;1.00;;
25707;SDS011;13567;61.652;17.100;2022-09-21T03:46:57;5.07;;;1.50;;
25707;SDS011;13567;61.652;17.100;2022-09-21T03:49:24;6.30;;;1.50;;
25707;SDS011;13567;61.652;17.100;2022-09-21T03:51:51;4.47;;;1.10;;
25707;SDS011;13567;61.652;17.100;2022-09-21T03:54:19;2.13;;;0.90;;
25707;SDS011;13567;61.652;17.100;2022-09-21T03:56:46;5.40;;;1.10;;
25707;SDS011;13567;61.652;17.100;2022-09-21T03:59:13;2.67;;;0.90;;
25707;SDS011;13567;61.652;17.100;2022-09-21T04:01:41;4.77;;;0.93;;
25707;SDS011;13567;61.652;17.100;2022-09-21T04:04:08;3.73;;;1.10;;
25707;SDS011;13567;61.652;17.100;2022-09-21T04:06:35;7.67;;;1.50;;
25707;SDS011;13567;61.652;17.100;2022-09-21T04:09:02;6.10;;;1.23;;
25707;SDS011;13567;61.652;17.100;2022-09-21T04:11:29;5.07;;;1.33;;
25707;SDS011;13567;61.652;17.100;2022-09-21T04:13:58;4.90;;;1.10;;
25707;SDS011;13567;61.652;17.100;2022-09-21T04:16:26;6.90;;;1.20;;
25707;SDS011;13567;61.652;17.100;2022-09-21T04:18:53;1.73;;;0.90;;
25707;SDS011;13567;61.652;17.100;2022-09-21T04:21:20;4.60;;;1.27;;
25707;SDS011;13567;61.652;17.100;2022-09-21T04:23:48;4.13;;;0.80;;
25707;SDS011;13567;61.652;17.100;2022-09-21T04:26:28;4.90;;;1.20;;
25707;SDS011;13567;61.652;17.100;2022-09-21T04:28:59;3.40;;;1.10;;
25707;SDS011;13567;61.652;17.100;2022-09-21T04:31:27;8.43;;;1.37;;
25707;SDS011;13567;61.652;17.100;2022-09-21T04:33:56;5.20;;;1.20;;
25707;SDS011;13567;61.652;17.100;2022-09-21T04:36:24;2.53;;;1.03;;
25707;SDS011;13567;61.652;17.100;2022-09-21T04:38:53;1.93;;;0.90;;
25707;SDS011;13567;61.652;17.100;2022-09-21T04:41:20;0.73;;;0.70;;
25707;SDS011;13567;61.652;17.100;2022-09-21T04:43:47;6.07;;;1.20;;
25707;SDS011;13567;61.652;17.100;2022-09-21T04:46:15;3.00;;;1.03;;
25707;SDS011;13567;61.652;17.100;2022-09-21T04:48:45;6.73;;;1.37;;
25707;SDS011;13567;61.652;17.100;2022-09-21T04:51:13;2.47;;;1.00;;
25707;SDS011;13567;61.652;17.100;2022-09-21T04:53:42;4.63;;;1.17;;
25707;SDS011;13567;61.652;17.100;2022-09-21T04:56:12;3.30;;;1.10;;
25707;SDS011;13567;61.652;17.100;2022-09-21T04:58:40;2.90;;;1.00;;
25707;SDS011;13567;61.652;17.100;2022-09-21T05:01:08;7.30;;;1.43;;
25707;SDS011;13567;61.652;17.100;2022-09-21T05:03:35;3.83;;;1.03;;
25707;SDS011;13567;61.652;17.100;2022-09-21T05:06:02;7.37;;;1.27;;
25707;SDS011;13567;61.652;17.100;2022-09-21T05:08:29;5.40;;;1.20;;
25707;SDS011;13567;61.652;17.100;2022-09-21T05:11:16;4.87;;;1.90;;
25707;SDS011;13567;61.652;17.100;2022-09-21T05:13:44;4.57;;;1.00;;
25707;SDS011;13567;61.652;17.100;2022-09-21T05:16:12;5.13;;;1.00;;
25707;SDS011;13567;61.652;17.100;2022-09-21T05:18:40;5.23;;;1.20;;
25707;SDS011;13567;61.652;17.100;2022-09-21T05:21:08;5.20;;;1.30;;
25707;SDS011;13567;61.652;17.100;2022-09-21T05:23:36;4.90;;;1.10;;
25707;SDS011;13567;61.652;17.100;2022-09-21T05:26:04;2.87;;;1.17;;
25707;SDS011;13567;61.652;17.100;2022-09-21T05:28:31;5.93;;;1.30;;
25707;SDS011;13567;61.652;17.100;2022-09-21T05:34:18;5.60;;;1.27;;
25707;SDS011;13567;61.652;17.100;2022-09-21T05:39:32;2.73;;;1.00;;
25707;SDS011;13567;61.652;17.100;2022-09-21T05:41:59;1.77;;;0.80;;
25707;SDS011;13567;61.652;17.100;2022-09-21T05:44:26;2.63;;;0.80;;
25707;SDS011;13567;61.652;17.100;2022-09-21T05:49:44;4.10;;;1.10;;
25707;SDS011;13567;61.652;17.100;2022-09-21T05:52:32;3.07;;;1.00;;
25707;SDS011;13567;61.652;17.100;2022-09-21T05:58:17;4.47;;;1.10;;
25707;SDS011;13567;61.652;17.100;2022-09-21T06:03:49;6.27;;;1.20;;
25707;SDS011;13567;61.652;17.100;2022-09-21T06:06:16;5.97;;;1.57;;
25707;SDS011;13567;61.652;17.100;2022-09-21T06:08:44;5.33;;;1.17;;
25707;SDS011;13567;61.652;17.100;2022-09-21T06:11:12;7.50;;;1.47;;
25707;SDS011;13567;61.652;17.100;2022-09-21T06:13:39;4.77;;;1.10;;
25707;SDS011;13567;61.652;17.100;2022-09-21T06:16:06;3.27;;;1.10;;
25707;SDS011;13567;61.652;17.100;2022-09-21T06:18:37;2.50;;;0.90;;
25707;SDS011;13567;61.652;17.100;2022-09-21T06:21:07;4.53;;;1.20;;
25707;SDS011;13567;61.652;17.100;2022-09-21T06:23:35;8.43;;;1.27;;
25707;SDS011;13567;61.652;17.100;2022-09-21T06:26:02;4.73;;;0.90;;
25707;SDS011;13567;61.652;17.100;2022-09-21T06:28:29;3.70;;;0.90;;
25707;SDS011;13567;61.652;17.100;2022-09-21T06:30:56;4.07;;;1.10;;
25707;SDS011;13567;61.652;17.100;2022-09-21T06:33:24;6.97;;;1.23;;
25707;SDS011;13567;61.652;17.100;2022-09-21T06:38:22;2.77;;;0.90;;
25707;SDS011;13567;61.652;17.100;2022-09-21T06:40:50;3.42;;;0.57;;
25707;SDS011;13567;61.652;17.100;2022-09-21T06:43:18;5.25;;;0.95;;
25707;SDS011;13567;61.652;17.100;2022-09-21T06:45:52;6.35;;;1.00;;
25707;SDS011;13567;61.652;17.100;2022-09-21T06:48:20;2.55;;;0.55;;
25707;SDS011;13567;61.652;17.100;2022-09-21T06:50:47;2.53;;;0.85;;
25707;SDS011;13567;61.652;17.100;2022-09-21T06:53:15;7.32;;;1.40;;
25707;SDS011;13567;61.652;17.100;2022-09-21T06:55:43;5.90;;;0.77;;
25707;SDS011;13567;61.652;17.100;2022-09-21T06:58:10;9.20;;;0.80;;
25707;SDS011;13567;61.652;17.100;2022-09-21T07:00:37;2.13;;;0.60;;
25707;SDS011;13567;61.652;17.100;2022-09-21T07:03:04;3.90;;;0.82;;
25707;SDS011;13567;61.652;17.100;2022-09-21T07:05:35;2.08;;;0.47;;
25707;SDS011;13567;61.652;17.100;2022-09-21T07:08:03;6.85;;;0.70;;
25707;SDS011;13567;61.652;17.100;2022-09-21T07:10:31;2.42;;;0.73;;
25707;SDS011;13567;61.652;17.100;2022-09-21T07:13:02;2.42;;;0.50;;
25707;SDS011;13567;61.652;17.100;2022-09-21T07:15:31;4.70;;;0.50;;
25707;SDS011;13567;61.652;17.100;2022-09-21T07:17:58;4.43;;;0.60;;
25707;SDS011;13567;61.652;17.100;2022-09-21T07:20:32;1.25;;;0.40;;
25707;SDS011;13567;61.652;17.100;2022-09-21T07:23:00;1.25;;;0.55;;
25707;SDS011;13567;61.652;17.100;2022-09-21T07:25:27;3.00;;;0.63;;
25707;SDS011;13567;61.652;17.100;2022-09-21T07:27:54;2.67;;;0.65;;
25707;SDS011;13567;61.652;17.100;2022-09-21T07:30:21;2.03;;;0.52;;
25707;SDS011;13567;61.652;17.100;2022-09-21T07:32:48;5.07;;;0.57;;
25707;SDS011;13567;61.652;17.100;2022-09-21T07:35:15;4.00;;;0.70;;
25707;SDS011;13567;61.652;17.100;2022-09-21T07:37:42;2.10;;;0.63;;
25707;SDS011;13567;61.652;17.100;2022-09-21T07:40:09;3.47;;;0.65;;
25707;SDS011;13567;61.652;17.100;2022-09-21T07:42:36;1.77;;;0.43;;
25707;SDS011;13567;61.652;17.100;2022-09-21T07:45:03;2.75;;;0.63;;
25707;SDS011;13567;61.652;17.100;2022-09-21T07:47:31;4.47;;;0.70;;
25707;SDS011;13567;61.652;17.100;2022-09-21T07:49:58;3.95;;;0.90;;
25707;SDS011;13567;61.652;17.100;2022-09-21T07:52:26;6.90;;;0.77;;
25707;SDS011;13567;61.652;17.100;2022-09-21T07:54:53;4.28;;;0.73;;
25707;SDS011;13567;61.652;17.100;2022-09-21T07:57:20;1.67;;;0.60;;
25707;SDS011;13567;61.652;17.100;2022-09-21T08:00:05;0.95;;;0.30;;
25707;SDS011;13567;61.652;17.100;2022-09-21T08:02:34;3.97;;;0.55;;
25707;SDS011;13567;61.652;17.100;2022-09-21T08:05:01;5.90;;;0.88;;
25707;SDS011;13567;61.652;17.100;2022-09-21T08:07:28;3.05;;;0.65;;
25707;SDS011;13567;61.652;17.100;2022-09-21T08:09:56;4.03;;;0.55;;
25707;SDS011;13567;61.652;17.100;2022-09-21T08:12:23;1.85;;;0.47;;
25707;SDS011;13567;61.652;17.100;2022-09-21T08:14:50;2.65;;;0.30;;
25707;SDS011;13567;61.652;17.100;2022-09-21T08:17:17;3.58;;;0.70;;
25707;SDS011;13567;61.652;17.100;2022-09-21T08:19:44;2.28;;;0.30;;
25707;SDS011;13567;61.652;17.100;2022-09-21T08:22:11;2.75;;;0.45;;
25707;SDS011;13567;61.652;17.100;2022-09-21T08:24:39;2.58;;;0.20;;
25707;SDS011;13567;61.652;17.100;2022-09-21T08:27:09;1.65;;;0.30;;
25707;SDS011;13567;61.652;17.100;2022-09-21T08:29:36;2.10;;;0.70;;
25707;SDS011;13567;61.652;17.100;2022-09-21T08:32:04;3.88;;;0.73;;
25707;SDS011;13567;61.652;17.100;2022-09-21T08:34:31;4.15;;;0.50;;
25707;SDS011;13567;61.652;17.100;2022-09-21T08:36:58;1.58;;;0.30;;
25707;SDS011;13567;61.652;17.100;2022-09-21T08:39:25;2.50;;;0.63;;
25707;SDS011;13567;61.652;17.100;2022-09-21T08:42:03;4.13;;;0.70;;
25707;SDS011;13567;61.652;17.100;2022-09-21T08:50:22;2.15;;;0.50;;
25707;SDS011;13567;61.652;17.100;2022-09-21T08:53:16;3.20;;;0.90;;
25707;SDS011;13567;61.652;17.100;2022-09-21T08:55:44;1.77;;;0.47;;
25707;SDS011;13567;61.652;17.100;2022-09-21T08:58:35;3.80;;;0.90;;
25707;SDS011;13567;61.652;17.100;2022-09-21T09:09:56;7.07;;;1.55;;
25707;SDS011;13567;61.652;17.100;2022-09-21T09:18:28;2.50;;;0.43;;
25707;SDS011;13567;61.652;17.100;2022-09-21T09:21:05;2.47;;;0.57;;
25707;SDS011;13567;61.652;17.100;2022-09-21T09:26:36;7.93;;;0.90;;
25707;SDS011;13567;61.652;17.100;2022-09-21T09:29:17;5.13;;;1.13;;
25707;SDS011;13567;61.652;17.100;2022-09-21T09:31:46;3.90;;;1.00;;
25707;SDS011;13567;61.652;17.100;2022-09-21T09:34:23;3.17;;;0.70;;
25707;SDS011;13567;61.652;17.100;2022-09-21T09:36:57;6.82;;;0.70;;
25707;SDS011;13567;61.652;17.100;2022-09-21T09:39:30;6.57;;;0.88;;
25707;SDS011;13567;61.652;17.100;2022-09-21T09:50:46;9.00;;;1.20;;
25707;SDS011;13567;61.652;17.100;2022-09-21T09:53:15;3.88;;;1.17;;
25707;SDS011;13567;61.652;17.100;2022-09-21T09:55:47;4.25;;;1.10;;
25707;SDS011;13567;61.652;17.100;2022-09-21T09:58:16;3.90;;;1.00;;
25707;SDS011;13567;61.652;17.100;2022-09-21T10:00:52;5.28;;;1.40;;
25707;SDS011;13567;61.652;17.100;2022-09-21T10:03:21;7.90;;;1.35;;
25707;SDS011;13567;61.652;17.100;2022-09-21T10:05:51;6.88;;;1.33;;
25707;SDS011;13567;61.652;17.100;2022-09-21T10:08:30;6.13;;;1.20;;
25707;SDS011;13567;61.652;17.100;2022-09-21T10:11:04;4.90;;;1.40;;
25707;SDS011;13567;61.652;17.100;2022-09-21T10:13:32;6.13;;;1.05;;
25707;SDS011;13567;61.652;17.100;2022-09-21T10:18:53;4.03;;;0.70;;
25707;SDS011;13567;61.652;17.100;2022-09-21T10:24:22;3.67;;;0.80;;
25707;SDS011;13567;61.652;17.100;2022-09-21T10:29:46;4.18;;;0.68;;
25707;SDS011;13567;61.652;17.100;2022-09-21T10:34:58;2.42;;;0.43;;
25707;SDS011;13567;61.652;17.100;2022-09-21T10:37:30;3.45;;;0.55;;
25707;SDS011;13567;61.652;17.100;2022-09-21T10:40:21;4.47;;;0.52;;
25707;SDS011;13567;61.652;17.100;2022-09-21T10:42:51;1.83;;;0.40;;
25707;SDS011;13567;61.652;17.100;2022-09-21T10:45:24;2.03;;;0.40;;
25707;SDS011;13567;61.652;17.100;2022-09-21T10:47:58;1.92;;;0.63;;
25707;SDS011;13567;61.652;17.100;2022-09-21T10:50:45;1.48;;;0.47;;
25707;SDS011;13567;61.652;17.100;2022-09-21T10:53:24;2.13;;;0.40;;
25707;SDS011;13567;61.652;17.100;2022-09-21T10:55:56;4.47;;;0.60;;
25707;SDS011;13567;61.652;17.100;2022-09-21T11:01:48;2.78;;;0.43;;
25707;SDS011;13567;61.652;17.100;2022-09-21T11:04:25;4.63;;;0.52;;
25707;SDS011;13567;61.652;17.100;2022-09-21T11:09:42;0.98;;;0.40;;
25707;SDS011;13567;61.652;17.100;2022-09-21T11:18:39;2.90;;;0.47;;
25707;SDS011;13567;61.652;17.100;2022-09-21T11:21:22;4.15;;;0.55;;
25707;SDS011;13567;61.652;17.100;2022-09-21T11:24:06;4.30;;;0.60;;
25707;SDS011;13567;61.652;17.100;2022-09-21T11:32:27;3.30;;;0.60;;
25707;SDS011;13567;61.652;17.100;2022-09-21T11:41:01;3.53;;;0.40;;
25707;SDS011;13567;61.652;17.100;2022-09-21T11:46:30;3.00;;;0.30;;
25707;SDS011;13567;61.652;17.100;2022-09-21T11:51:51;3.95;;;0.52;;
25707;SDS011;13567;61.652;17.100;2022-09-21T12:10:17;3.45;;;0.47;;
25707;SDS011;13567;61.652;17.100;2022-09-21T12:15:30;2.38;;;0.40;;
25707;SDS011;13567;61.652;17.100;2022-09-21T12:18:19;3.78;;;0.63;;
25707;SDS011;13567;61.652;17.100;2022-09-21T12:21:16;3.15;;;0.50;;
25707;SDS011;13567;61.652;17.100;2022-09-21T12:24:04;2.28;;;0.30;;
25707;SDS011;13567;61.652;17.100;2022-09-21T12:26:45;4.78;;;0.40;;
25707;SDS011;13567;61.652;17.100;2022-09-21T12:34:47;3.00;;;0.40;;
25707;SDS011;13567;61.652;17.100;2022-09-21T12:37:29;2.38;;;0.68;;
25707;SDS011;13567;61.652;17.100;2022-09-21T12:40:05;1.17;;;0.30;;
25707;SDS011;13567;61.652;17.100;2022-09-21T12:42:49;3.05;;;0.50;;
25707;SDS011;13567;61.652;17.100;2022-09-21T12:48:03;0.85;;;0.30;;
25707;SDS011;13567;61.652;17.100;2022-09-21T12:50:53;1.77;;;0.47;;
25707;SDS011;13567;61.652;17.100;2022-09-21T12:53:31;2.60;;;0.40;;
25707;SDS011;13567;61.652;17.100;2022-09-21T13:09:27;1.65;;;0.40;;
25707;SDS011;13567;61.652;17.100;2022-09-21T13:12:00;4.50;;;0.60;;
25707;SDS011;13567;61.652;17.100;2022-09-21T13:14:35;1.88;;;0.30;;
25707;SDS011;13567;61.652;17.100;2022-09-21T13:17:07;1.65;;;0.35;;
25707;SDS011;13567;61.652;17.100;2022-09-21T13:19:50;3.67;;;0.50;;
25707;SDS011;13567;61.652;17.100;2022-09-21T13:22:29;2.47;;;0.40;;
25707;SDS011;13567;61.652;17.100;2022-09-21T13:24:59;2.40;;;0.60;;
25707;SDS011;13567;61.652;17.100;2022-09-21T13:42:44;4.13;;;0.57;;
25707;SDS011;13567;61.652;17.100;2022-09-21T13:47:43;3.45;;;0.60;;
25707;SDS011;13567;61.652;17.100;2022-09-21T13:50:23;1.52;;;0.40;;
25707;SDS011;13567;61.652;17.100;2022-09-21T13:53:03;1.52;;;0.50;;
25707;SDS011;13567;61.652;17.100;2022-09-21T13:55:33;0.88;;;0.40;;
25707;SDS011;13567;61.652;17.100;2022-09-21T14:00:53;2.10;;;0.50;;
25707;SDS011;13567;61.652;17.100;2022-09-21T14:03:27;2.90;;;0.40;;
25707;SDS011;13567;61.652;17.100;2022-09-21T14:06:06;3.45;;;0.63;;
25707;SDS011;13567;61.652;17.100;2022-09-21T14:08:51;0.95;;;0.30;;
25707;SDS011;13567;61.652;17.100;2022-09-21T14:11:33;1.15;;;0.35;;
25707;SDS011;13567;61.652;17.100;2022-09-21T14:16:54;0.65;;;0.32;;
25707;SDS011;13567;61.652;17.100;2022-09-21T14:24:37;0.65;;;0.38;;
25707;SDS011;13567;61.652;17.100;2022-09-21T14:35:31;0.75;;;0.40;;
25707;SDS011;13567;61.652;17.100;2022-09-21T14:38:13;13.05;;;3.00;;
25707;SDS011;13567;61.652;17.100;2022-09-21T14:40:44;6.00;;;1.15;;
25707;SDS011;13567;61.652;17.100;2022-09-21T14:43:17;2.47;;;0.50;;
25707;SDS011;13567;61.652;17.100;2022-09-21T14:48:53;2.83;;;0.50;;
25707;SDS011;13567;61.652;17.100;2022-09-21T14:52:17;5.28;;;0.50;;
25707;SDS011;13567;61.652;17.100;2022-09-21T14:54:54;0.93;;;0.55;;
25707;SDS011;13567;61.652;17.100;2022-09-21T14:57:51;2.20;;;0.43;;
25707;SDS011;13567;61.652;17.100;2022-09-21T15:00:38;2.90;;;0.70;;
25707;SDS011;13567;61.652;17.100;2022-09-21T15:12:08;1.25;;;0.50;;
25707;SDS011;13567;61.652;17.100;2022-09-21T15:17:49;1.73;;;0.40;;
25707;SDS011;13567;61.652;17.100;2022-09-21T15:20:24;3.10;;;0.30;;
25707;SDS011;13567;61.652;17.100;2022-09-21T15:22:53;2.17;;;0.63;;
25707;SDS011;13567;61.652;17.100;2022-09-21T15:25:22;0.85;;;0.60;;
25707;SDS011;13567;61.652;17.100;2022-09-21T15:27:52;3.72;;;0.88;;
25707;SDS011;13567;61.652;17.100;2022-09-21T15:30:23;1.95;;;0.40;;
25707;SDS011;13567;61.652;17.100;2022-09-21T15:32:58;1.88;;;0.50;;
25707;SDS011;13567;61.652;17.100;2022-09-21T15:35:28;0.77;;;0.40;;
25707;SDS011;13567;61.652;17.100;2022-09-21T15:37:58;1.33;;;0.50;;
25707;SDS011;13567;61.652;17.100;2022-09-21T15:43:02;1.55;;;0.68;;
25707;SDS011;13567;61.652;17.100;2022-09-21T15:45:47;3.25;;;0.50;;
25707;SDS011;13567;61.652;17.100;2022-09-21T15:48:21;1.08;;;0.57;;
25707;SDS011;13567;61.652;17.100;2022-09-21T15:50:58;1.15;;;0.57;;
25707;SDS011;13567;61.652;17.100;2022-09-21T15:53:34;1.65;;;0.60;;
25707;SDS011;13567;61.652;17.100;2022-09-21T15:56:09;0.80;;;0.50;;
25707;SDS011;13567;61.652;17.100;2022-09-21T15:58:51;1.95;;;0.65;;
25707;SDS011;13567;61.652;17.100;2022-09-21T16:01:41;1.55;;;0.50;;
25707;SDS011;13567;61.652;17.100;2022-09-21T16:04:11;3.03;;;0.60;;
25707;SDS011;13567;61.652;17.100;2022-09-21T16:06:55;1.48;;;0.60;;
25707;SDS011;13567;61.652;17.100;2022-09-21T16:09:26;3.85;;;0.55;;
25707;SDS011;13567;61.652;17.100;2022-09-21T16:12:02;1.20;;;0.45;;
25707;SDS011;13567;61.652;17.100;2022-09-21T16:14:53;2.38;;;0.50;;
25707;SDS011;13567;61.652;17.100;2022-09-21T16:18:27;1.85;;;0.82;;
25707;SDS011;13567;61.652;17.100;2022-09-21T16:20:55;2.80;;;0.68;;
25707;SDS011;13567;61.652;17.100;2022-09-21T16:23:32;1.27;;;0.63;;
25707;SDS011;13567;61.652;17.100;2022-09-21T16:25:59;2.25;;;0.68;;
25707;SDS011;13567;61.652;17.100;2022-09-21T16:28:29;2.67;;;0.98;;
25707;SDS011;13567;61.652;17.100;2022-09-21T16:31:20;3.67;;;0.70;;
25707;SDS011;13567;61.652;17.100;2022-09-21T16:33:59;3.53;;;0.50;;
25707;SDS011;13567;61.652;17.100;2022-09-21T16:36:34;2.45;;;0.60;;
25707;SDS011;13567;61.652;17.100;2022-09-21T16:39:04;3.05;;;0.75;;
25707;SDS011;13567;61.652;17.100;2022-09-21T16:41:41;3.13;;;0.85;;
25707;SDS011;13567;61.652;17.100;2022-09-21T16:44:17;2.80;;;0.88;;
25707;SDS011;13567;61.652;17.100;2022-09-21T16:46:47;3.70;;;0.60;;
25707;SDS011;13567;61.652;17.100;2022-09-21T16:49:17;2.05;;;0.60;;
25707;SDS011;13567;61.652;17.100;2022-09-21T16:51:48;0.88;;;0.45;;
25707;SDS011;13567;61.652;17.100;2022-09-21T16:54:16;5.43;;;0.80;;
25707;SDS011;13567;61.652;17.100;2022-09-21T16:56:43;1.20;;;0.65;;
25707;SDS011;13567;61.652;17.100;2022-09-21T16:59:16;2.40;;;0.60;;
25707;SDS011;13567;61.652;17.100;2022-09-21T17:01:50;2.17;;;0.70;;
25707;SDS011;13567;61.652;17.100;2022-09-21T17:04:23;0.95;;;0.60;;
25707;SDS011;13567;61.652;17.100;2022-09-21T17:06:54;2.45;;;0.85;;
25707;SDS011;13567;61.652;17.100;2022-09-21T17:09:26;2.38;;;0.95;;
25707;SDS011;13567;61.652;17.100;2022-09-21T17:11:57;2.55;;;0.65;;
25707;SDS011;13567;61.652;17.100;2022-09-21T17:14:29;3.92;;;1.33;;
25707;SDS011;13567;61.652;17.100;2022-09-21T17:17:04;2.47;;;0.80;;
25707;SDS011;13567;61.652;17.100;2022-09-21T17:19:37;2.78;;;0.60;;
25707;SDS011;13567;61.652;17.100;2022-09-21T17:22:10;1.85;;;0.82;;
25707;SDS011;13567;61.652;17.100;2022-09-21T17:24:42;1.20;;;0.60;;
25707;SDS011;13567;61.652;17.100;2022-09-21T17:27:16;2.25;;;0.65;;
25707;SDS011;13567;61.652;17.100;2022-09-21T17:29:48;7.25;;;2.78;;
25707;SDS011;13567;61.652;17.100;2022-09-21T17:32:21;6.05;;;2.15;;
25707;SDS011;13567;61.652;17.100;2022-09-21T17:35:10;6.47;;;1.60;;
25707;SDS011;13567;61.652;17.100;2022-09-21T17:37:45;3.90;;;1.73;;
25707;SDS011;13567;61.652;17.100;2022-09-21T17:40:12;9.40;;;3.15;;
25707;SDS011;13567;61.652;17.100;2022-09-21T17:42:41;3.83;;;1.05;;
25707;SDS011;13567;61.652;17.100;2022-09-21T17:47:50;4.25;;;0.90;;
25707;SDS011;13567;61.652;17.100;2022-09-21T17:50:21;5.82;;;1.45;;
25707;SDS011;13567;61.652;17.100;2022-09-21T17:52:52;8.75;;;3.20;;
25707;SDS011;13567;61.652;17.100;2022-09-21T17:55:41;12.65;;;4.50;;
25707;SDS011;13567;61.652;17.100;2022-09-21T18:03:35;13.57;;;5.22;;
25707;SDS011;13567;61.652;17.100;2022-09-21T18:06:07;12.27;;;5.50;;
25707;SDS011;13567;61.652;17.100;2022-09-21T18:08:36;12.32;;;4.68;;
25707;SDS011;13567;61.652;17.100;2022-09-21T18:13:45;13.95;;;6.03;;
25707;SDS011;13567;61.652;17.100;2022-09-21T18:16:43;15.05;;;6.25;;
25707;SDS011;13567;61.652;17.100;2022-09-21T18:19:34;16.40;;;8.10;;
25707;SDS011;13567;61.652;17.100;2022-09-21T18:22:35;19.48;;;10.73;;
25707;SDS011;13567;61.652;17.100;2022-09-21T18:25:30;20.77;;;11.73;;
25707;SDS011;13567;61.652;17.100;2022-09-21T18:28:07;10.70;;;3.67;;
25707;SDS011;13567;61.652;17.100;2022-09-21T18:30:38;34.03;;;24.17;;
25707;SDS011;13567;61.652;17.100;2022-09-21T18:36:17;37.92;;;21.77;;
25707;SDS011;13567;61.652;17.100;2022-09-21T18:38:52;14.50;;;5.77;;
25707;SDS011;13567;61.652;17.100;2022-09-21T18:41:34;19.25;;;10.10;;
25707;SDS011;13567;61.652;17.100;2022-09-21T18:47:21;28.07;;;17.40;;
25707;SDS011;13567;61.652;17.100;2022-09-21T18:50:14;32.63;;;20.45;;